sensor_id;sensor_type;location;lat;lon;timestamp;P1;durP1;ratioP1;P2;durP2;ratioP2
52564;SDS011;38460;53.106;7.004;2022-08-25T00:01:13;6.20;;;4.10;;
52564;SDS011;38460;53.106;7.004;2022-08-25T00:03:40;6.60;;;4.22;;
52564;SDS011;38460;53.106;7.004;2022-08-25T00:06:07;6.35;;;4.10;;
52564;SDS011;38460;53.106;7.004;2022-08-25T00:08:34;5.30;;;3.55;;
52564;SDS011;38460;53.106;7.004;2022-08-25T00:11:12;6.25;;;3.92;;
52564;SDS011;38460;53.106;7.004;2022-08-25T00:13:41;8.07;;;4.10;;
52564;SDS011;38460;53.106;7.004;2022-08-25T00:16:09;8.25;;;3.95;;
52564;SDS011;38460;53.106;7.004;2022-08-25T00:18:37;6.53;;;3.90;;
52564;SDS011;38460;53.106;7.004;2022-08-25T00:21:04;6.15;;;3.80;;
52564;SDS011;38460;53.106;7.004;2022-08-25T00:23:30;5.75;;;3.15;;
52564;SDS011;38460;53.106;7.004;2022-08-25T00:25:56;7.65;;;4.15;;
52564;SDS011;38460;53.106;7.004;2022-08-25T00:28:22;6.28;;;3.70;;
52564;SDS011;38460;53.106;7.004;2022-08-25T00:30:48;6.47;;;3.78;;
52564;SDS011;38460;53.106;7.004;2022-08-25T00:33:15;5.50;;;3.85;;
52564;SDS011;38460;53.106;7.004;2022-08-25T00:35:42;4.78;;;3.67;;
52564;SDS011;38460;53.106;7.004;2022-08-25T00:38:09;7.28;;;4.07;;
52564;SDS011;38460;53.106;7.004;2022-08-25T00:40:37;5.00;;;3.60;;
52564;SDS011;38460;53.106;7.004;2022-08-25T00:43:04;6.05;;;3.50;;
52564;SDS011;38460;53.106;7.004;2022-08-25T00:45:31;5.57;;;3.88;;
52564;SDS011;38460;53.106;7.004;2022-08-25T00:47:57;5.68;;;3.97;;
52564;SDS011;38460;53.106;7.004;2022-08-25T00:50:23;6.28;;;3.95;;
52564;SDS011;38460;53.106;7.004;2022-08-25T00:52:50;5.82;;;3.58;;
52564;SDS011;38460;53.106;7.004;2022-08-25T00:58:21;6.63;;;3.63;;
52564;SDS011;38460;53.106;7.004;2022-08-25T01:00:51;7.32;;;4.20;;
52564;SDS011;38460;53.106;7.004;2022-08-25T01:03:20;5.30;;;4.07;;
52564;SDS011;38460;53.106;7.004;2022-08-25T01:05:46;8.05;;;4.18;;
52564;SDS011;38460;53.106;7.004;2022-08-25T01:08:12;5.95;;;3.72;;
52564;SDS011;38460;53.106;7.004;2022-08-25T01:10:40;6.18;;;3.83;;
52564;SDS011;38460;53.106;7.004;2022-08-25T01:13:19;5.75;;;3.95;;
52564;SDS011;38460;53.106;7.004;2022-08-25T01:15:52;5.18;;;3.40;;
52564;SDS011;38460;53.106;7.004;2022-08-25T01:18:20;5.10;;;3.50;;
52564;SDS011;38460;53.106;7.004;2022-08-25T01:20:56;6.05;;;3.78;;
52564;SDS011;38460;53.106;7.004;2022-08-25T01:23:24;6.88;;;3.95;;
52564;SDS011;38460;53.106;7.004;2022-08-25T01:26:04;8.50;;;4.05;;
52564;SDS011;38460;53.106;7.004;2022-08-25T01:28:32;7.22;;;4.30;;
52564;SDS011;38460;53.106;7.004;2022-08-25T01:30:58;7.25;;;3.58;;
52564;SDS011;38460;53.106;7.004;2022-08-25T01:33:24;5.35;;;3.70;;
52564;SDS011;38460;53.106;7.004;2022-08-25T01:35:50;6.53;;;4.38;;
52564;SDS011;38460;53.106;7.004;2022-08-25T01:38:16;4.55;;;3.40;;
52564;SDS011;38460;53.106;7.004;2022-08-25T01:40:42;4.68;;;3.75;;
52564;SDS011;38460;53.106;7.004;2022-08-25T01:43:15;7.85;;;4.03;;
52564;SDS011;38460;53.106;7.004;2022-08-25T01:45:59;8.32;;;4.15;;
52564;SDS011;38460;53.106;7.004;2022-08-25T01:48:25;7.00;;;4.05;;
52564;SDS011;38460;53.106;7.004;2022-08-25T01:50:51;6.88;;;3.92;;
52564;SDS011;38460;53.106;7.004;2022-08-25T01:53:26;6.63;;;3.85;;
52564;SDS011;38460;53.106;7.004;2022-08-25T01:55:53;8.52;;;4.05;;
52564;SDS011;38460;53.106;7.004;2022-08-25T01:58:26;6.20;;;3.95;;
52564;SDS011;38460;53.106;7.004;2022-08-25T02:00:55;5.07;;;3.70;;
52564;SDS011;38460;53.106;7.004;2022-08-25T02:03:23;7.43;;;4.13;;
52564;SDS011;38460;53.106;7.004;2022-08-25T02:05:50;7.88;;;4.30;;
52564;SDS011;38460;53.106;7.004;2022-08-25T02:08:17;8.10;;;3.72;;
52564;SDS011;38460;53.106;7.004;2022-08-25T02:10:43;6.30;;;3.70;;
52564;SDS011;38460;53.106;7.004;2022-08-25T02:13:10;8.43;;;4.70;;
52564;SDS011;38460;53.106;7.004;2022-08-25T02:15:44;5.68;;;3.80;;
52564;SDS011;38460;53.106;7.004;2022-08-25T02:18:13;5.72;;;4.05;;
52564;SDS011;38460;53.106;7.004;2022-08-25T02:20:39;7.47;;;4.00;;
52564;SDS011;38460;53.106;7.004;2022-08-25T02:23:05;7.20;;;3.67;;
52564;SDS011;38460;53.106;7.004;2022-08-25T02:25:30;5.20;;;3.55;;
52564;SDS011;38460;53.106;7.004;2022-08-25T02:27:57;9.18;;;3.85;;
52564;SDS011;38460;53.106;7.004;2022-08-25T02:30:24;6.95;;;3.83;;
52564;SDS011;38460;53.106;7.004;2022-08-25T02:32:51;6.18;;;3.60;;
52564;SDS011;38460;53.106;7.004;2022-08-25T02:35:17;8.30;;;4.10;;
52564;SDS011;38460;53.106;7.004;2022-08-25T02:37:43;7.18;;;4.00;;
52564;SDS011;38460;53.106;7.004;2022-08-25T02:40:09;6.50;;;3.97;;
52564;SDS011;38460;53.106;7.004;2022-08-25T02:42:35;8.93;;;4.15;;
52564;SDS011;38460;53.106;7.004;2022-08-25T02:45:01;7.70;;;4.30;;
52564;SDS011;38460;53.106;7.004;2022-08-25T02:47:27;14.07;;;4.28;;
52564;SDS011;38460;53.106;7.004;2022-08-25T02:49:53;6.13;;;4.07;;
52564;SDS011;38460;53.106;7.004;2022-08-25T02:52:19;8.07;;;4.03;;
52564;SDS011;38460;53.106;7.004;2022-08-25T02:54:45;5.00;;;3.83;;
52564;SDS011;38460;53.106;7.004;2022-08-25T02:57:11;7.65;;;4.30;;
52564;SDS011;38460;53.106;7.004;2022-08-25T02:59:38;5.88;;;4.03;;
52564;SDS011;38460;53.106;7.004;2022-08-25T03:02:04;6.38;;;4.60;;
52564;SDS011;38460;53.106;7.004;2022-08-25T03:04:30;6.95;;;4.07;;
52564;SDS011;38460;53.106;7.004;2022-08-25T03:06:56;6.03;;;4.13;;
52564;SDS011;38460;53.106;7.004;2022-08-25T03:09:23;7.80;;;3.88;;
52564;SDS011;38460;53.106;7.004;2022-08-25T03:11:50;7.32;;;4.32;;
52564;SDS011;38460;53.106;7.004;2022-08-25T03:14:15;5.70;;;4.13;;
52564;SDS011;38460;53.106;7.004;2022-08-25T03:16:41;6.82;;;4.50;;
52564;SDS011;38460;53.106;7.004;2022-08-25T03:19:08;6.47;;;4.60;;
52564;SDS011;38460;53.106;7.004;2022-08-25T03:21:35;7.32;;;4.45;;
52564;SDS011;38460;53.106;7.004;2022-08-25T03:24:03;8.82;;;4.25;;
52564;SDS011;38460;53.106;7.004;2022-08-25T03:26:29;7.00;;;4.60;;
52564;SDS011;38460;53.106;7.004;2022-08-25T03:29:14;7.28;;;4.38;;
52564;SDS011;38460;53.106;7.004;2022-08-25T03:31:41;9.52;;;4.35;;
52564;SDS011;38460;53.106;7.004;2022-08-25T03:34:09;5.68;;;4.38;;
52564;SDS011;38460;53.106;7.004;2022-08-25T03:36:41;7.13;;;4.38;;
52564;SDS011;38460;53.106;7.004;2022-08-25T03:39:07;7.55;;;4.38;;
52564;SDS011;38460;53.106;7.004;2022-08-25T03:41:34;7.22;;;4.85;;
52564;SDS011;38460;53.106;7.004;2022-08-25T03:44:00;5.80;;;4.47;;
52564;SDS011;38460;53.106;7.004;2022-08-25T03:46:35;5.68;;;4.20;;
52564;SDS011;38460;53.106;7.004;2022-08-25T03:49:04;6.25;;;4.90;;
52564;SDS011;38460;53.106;7.004;2022-08-25T03:51:34;6.50;;;4.72;;
52564;SDS011;38460;53.106;7.004;2022-08-25T03:54:02;10.32;;;4.57;;
52564;SDS011;38460;53.106;7.004;2022-08-25T03:56:29;8.10;;;4.60;;
52564;SDS011;38460;53.106;7.004;2022-08-25T03:58:55;5.93;;;5.25;;
52564;SDS011;38460;53.106;7.004;2022-08-25T04:01:21;9.00;;;5.15;;
52564;SDS011;38460;53.106;7.004;2022-08-25T04:03:48;7.38;;;5.30;;
52564;SDS011;38460;53.106;7.004;2022-08-25T04:06:14;8.20;;;5.22;;
52564;SDS011;38460;53.106;7.004;2022-08-25T04:08:41;6.40;;;5.13;;
52564;SDS011;38460;53.106;7.004;2022-08-25T04:11:08;6.95;;;4.75;;
52564;SDS011;38460;53.106;7.004;2022-08-25T04:16:13;6.78;;;5.38;;
52564;SDS011;38460;53.106;7.004;2022-08-25T04:18:56;7.47;;;5.47;;
52564;SDS011;38460;53.106;7.004;2022-08-25T04:21:24;7.63;;;5.32;;
52564;SDS011;38460;53.106;7.004;2022-08-25T04:23:51;7.65;;;5.30;;
52564;SDS011;38460;53.106;7.004;2022-08-25T04:26:19;7.68;;;5.65;;
52564;SDS011;38460;53.106;7.004;2022-08-25T04:28:51;7.55;;;5.38;;
52564;SDS011;38460;53.106;7.004;2022-08-25T04:31:18;8.57;;;5.32;;
52564;SDS011;38460;53.106;7.004;2022-08-25T04:33:46;9.23;;;6.07;;
52564;SDS011;38460;53.106;7.004;2022-08-25T04:36:12;7.78;;;5.45;;
52564;SDS011;38460;53.106;7.004;2022-08-25T04:38:41;7.85;;;5.97;;
52564;SDS011;38460;53.106;7.004;2022-08-25T04:41:08;10.68;;;5.45;;
52564;SDS011;38460;53.106;7.004;2022-08-25T04:43:36;10.07;;;6.75;;
52564;SDS011;38460;53.106;7.004;2022-08-25T04:46:06;8.23;;;6.03;;
52564;SDS011;38460;53.106;7.004;2022-08-25T04:48:35;7.50;;;5.60;;
52564;SDS011;38460;53.106;7.004;2022-08-25T04:51:04;7.97;;;5.30;;
52564;SDS011;38460;53.106;7.004;2022-08-25T04:53:32;9.90;;;6.10;;
52564;SDS011;38460;53.106;7.004;2022-08-25T04:55:59;9.82;;;6.35;;
52564;SDS011;38460;53.106;7.004;2022-08-25T04:58:24;8.50;;;5.85;;
52564;SDS011;38460;53.106;7.004;2022-08-25T05:00:51;9.30;;;6.00;;
52564;SDS011;38460;53.106;7.004;2022-08-25T05:03:17;8.93;;;6.45;;
52564;SDS011;38460;53.106;7.004;2022-08-25T05:05:43;9.63;;;5.75;;
52564;SDS011;38460;53.106;7.004;2022-08-25T05:08:08;9.32;;;6.22;;
52564;SDS011;38460;53.106;7.004;2022-08-25T05:10:37;9.43;;;6.13;;
52564;SDS011;38460;53.106;7.004;2022-08-25T05:13:04;10.50;;;6.68;;
52564;SDS011;38460;53.106;7.004;2022-08-25T05:15:30;8.93;;;5.57;;
52564;SDS011;38460;53.106;7.004;2022-08-25T05:18:15;7.35;;;5.95;;
52564;SDS011;38460;53.106;7.004;2022-08-25T05:20:42;10.15;;;6.45;;
52564;SDS011;38460;53.106;7.004;2022-08-25T05:23:08;14.10;;;6.00;;
52564;SDS011;38460;53.106;7.004;2022-08-25T05:25:34;12.05;;;6.30;;
52564;SDS011;38460;53.106;7.004;2022-08-25T05:28:00;9.70;;;6.80;;
52564;SDS011;38460;53.106;7.004;2022-08-25T05:30:26;10.75;;;6.65;;
52564;SDS011;38460;53.106;7.004;2022-08-25T05:32:52;10.13;;;6.05;;
52564;SDS011;38460;53.106;7.004;2022-08-25T05:35:21;9.40;;;6.28;;
52564;SDS011;38460;53.106;7.004;2022-08-25T05:37:47;9.60;;;6.22;;
52564;SDS011;38460;53.106;7.004;2022-08-25T05:40:12;9.95;;;6.40;;
52564;SDS011;38460;53.106;7.004;2022-08-25T05:42:38;10.10;;;6.22;;
52564;SDS011;38460;53.106;7.004;2022-08-25T05:45:05;8.80;;;6.32;;
52564;SDS011;38460;53.106;7.004;2022-08-25T05:47:32;7.93;;;5.80;;
52564;SDS011;38460;53.106;7.004;2022-08-25T05:49:58;10.95;;;7.10;;
52564;SDS011;38460;53.106;7.004;2022-08-25T05:52:25;9.57;;;6.40;;
52564;SDS011;38460;53.106;7.004;2022-08-25T05:54:52;8.80;;;6.55;;
52564;SDS011;38460;53.106;7.004;2022-08-25T05:57:18;10.13;;;7.38;;
52564;SDS011;38460;53.106;7.004;2022-08-25T05:59:43;10.13;;;6.65;;
52564;SDS011;38460;53.106;7.004;2022-08-25T06:02:09;9.18;;;6.57;;
52564;SDS011;38460;53.106;7.004;2022-08-25T06:04:53;10.55;;;6.63;;
52564;SDS011;38460;53.106;7.004;2022-08-25T06:07:19;11.43;;;7.68;;
52564;SDS011;38460;53.106;7.004;2022-08-25T06:09:45;12.90;;;7.38;;
52564;SDS011;38460;53.106;7.004;2022-08-25T06:12:13;12.18;;;7.38;;
52564;SDS011;38460;53.106;7.004;2022-08-25T06:14:39;9.30;;;6.60;;
52564;SDS011;38460;53.106;7.004;2022-08-25T06:17:06;9.52;;;6.80;;
52564;SDS011;38460;53.106;7.004;2022-08-25T06:19:32;10.10;;;7.22;;
52564;SDS011;38460;53.106;7.004;2022-08-25T06:21:58;9.57;;;6.97;;
52564;SDS011;38460;53.106;7.004;2022-08-25T06:24:24;12.25;;;7.47;;
52564;SDS011;38460;53.106;7.004;2022-08-25T06:26:51;9.70;;;6.95;;
52564;SDS011;38460;53.106;7.004;2022-08-25T06:29:18;9.80;;;7.00;;
52564;SDS011;38460;53.106;7.004;2022-08-25T06:31:44;10.52;;;6.95;;
52564;SDS011;38460;53.106;7.004;2022-08-25T06:34:10;9.82;;;6.63;;
52564;SDS011;38460;53.106;7.004;2022-08-25T06:36:36;12.63;;;6.90;;
52564;SDS011;38460;53.106;7.004;2022-08-25T06:39:02;10.60;;;6.70;;
52564;SDS011;38460;53.106;7.004;2022-08-25T06:41:28;9.27;;;6.68;;
52564;SDS011;38460;53.106;7.004;2022-08-25T06:43:54;11.35;;;7.20;;
52564;SDS011;38460;53.106;7.004;2022-08-25T06:46:21;9.75;;;7.10;;
52564;SDS011;38460;53.106;7.004;2022-08-25T06:48:48;10.50;;;7.00;;
52564;SDS011;38460;53.106;7.004;2022-08-25T06:51:16;10.80;;;6.88;;
52564;SDS011;38460;53.106;7.004;2022-08-25T06:53:46;11.25;;;6.72;;
52564;SDS011;38460;53.106;7.004;2022-08-25T06:56:17;9.18;;;6.88;;
52564;SDS011;38460;53.106;7.004;2022-08-25T06:58:44;9.93;;;6.50;;
52564;SDS011;38460;53.106;7.004;2022-08-25T07:01:11;9.82;;;6.57;;
52564;SDS011;38460;53.106;7.004;2022-08-25T07:03:42;9.23;;;6.35;;
52564;SDS011;38460;53.106;7.004;2022-08-25T07:06:08;11.40;;;6.70;;
52564;SDS011;38460;53.106;7.004;2022-08-25T07:08:34;8.23;;;6.43;;
52564;SDS011;38460;53.106;7.004;2022-08-25T07:11:07;12.05;;;6.38;;
52564;SDS011;38460;53.106;7.004;2022-08-25T07:13:34;13.07;;;7.10;;
52564;SDS011;38460;53.106;7.004;2022-08-25T07:16:02;13.55;;;7.20;;
52564;SDS011;38460;53.106;7.004;2022-08-25T07:18:29;9.85;;;5.95;;
52564;SDS011;38460;53.106;7.004;2022-08-25T07:20:55;12.38;;;6.38;;
52564;SDS011;38460;53.106;7.004;2022-08-25T07:23:22;11.02;;;6.88;;
52564;SDS011;38460;53.106;7.004;2022-08-25T07:25:48;9.13;;;6.35;;
52564;SDS011;38460;53.106;7.004;2022-08-25T07:28:14;7.32;;;5.88;;
52564;SDS011;38460;53.106;7.004;2022-08-25T07:30:41;10.27;;;5.80;;
52564;SDS011;38460;53.106;7.004;2022-08-25T07:33:07;10.07;;;6.13;;
52564;SDS011;38460;53.106;7.004;2022-08-25T07:35:33;7.63;;;6.05;;
52564;SDS011;38460;53.106;7.004;2022-08-25T07:38:00;10.48;;;6.18;;
52564;SDS011;38460;53.106;7.004;2022-08-25T07:40:31;8.98;;;6.00;;
52564;SDS011;38460;53.106;7.004;2022-08-25T07:43:00;8.93;;;5.50;;
52564;SDS011;38460;53.106;7.004;2022-08-25T07:45:29;8.75;;;5.93;;
52564;SDS011;38460;53.106;7.004;2022-08-25T07:47:57;10.57;;;6.40;;
52564;SDS011;38460;53.106;7.004;2022-08-25T07:50:24;9.20;;;5.72;;
52564;SDS011;38460;53.106;7.004;2022-08-25T07:52:50;13.93;;;6.05;;
52564;SDS011;38460;53.106;7.004;2022-08-25T07:55:16;9.45;;;6.13;;
52564;SDS011;38460;53.106;7.004;2022-08-25T07:57:42;8.82;;;5.68;;
52564;SDS011;38460;53.106;7.004;2022-08-25T08:00:08;10.93;;;6.50;;
52564;SDS011;38460;53.106;7.004;2022-08-25T08:02:37;9.68;;;5.95;;
52564;SDS011;38460;53.106;7.004;2022-08-25T08:05:03;9.80;;;5.88;;
52564;SDS011;38460;53.106;7.004;2022-08-25T08:07:30;10.77;;;5.95;;
52564;SDS011;38460;53.106;7.004;2022-08-25T08:09:55;9.15;;;6.50;;
52564;SDS011;38460;53.106;7.004;2022-08-25T08:12:21;7.25;;;5.40;;
52564;SDS011;38460;53.106;7.004;2022-08-25T08:14:48;11.15;;;6.35;;
52564;SDS011;38460;53.106;7.004;2022-08-25T08:17:15;8.88;;;5.78;;
52564;SDS011;38460;53.106;7.004;2022-08-25T08:19:41;9.73;;;5.78;;
52564;SDS011;38460;53.106;7.004;2022-08-25T08:22:07;9.10;;;5.57;;
52564;SDS011;38460;53.106;7.004;2022-08-25T08:24:36;9.02;;;6.10;;
52564;SDS011;38460;53.106;7.004;2022-08-25T08:27:05;12.75;;;6.60;;
52564;SDS011;38460;53.106;7.004;2022-08-25T08:29:35;7.85;;;6.10;;
52564;SDS011;38460;53.106;7.004;2022-08-25T08:32:03;8.23;;;6.13;;
52564;SDS011;38460;53.106;7.004;2022-08-25T08:34:31;11.23;;;5.68;;
52564;SDS011;38460;53.106;7.004;2022-08-25T08:36:57;8.82;;;5.60;;
52564;SDS011;38460;53.106;7.004;2022-08-25T08:39:24;9.27;;;6.57;;
52564;SDS011;38460;53.106;7.004;2022-08-25T08:50:02;13.82;;;6.25;;
52564;SDS011;38460;53.106;7.004;2022-08-25T08:52:35;9.50;;;5.93;;
52564;SDS011;38460;53.106;7.004;2022-08-25T08:55:15;8.23;;;6.05;;
52564;SDS011;38460;53.106;7.004;2022-08-25T08:57:46;8.43;;;5.88;;
52564;SDS011;38460;53.106;7.004;2022-08-25T09:00:15;11.50;;;6.07;;
52564;SDS011;38460;53.106;7.004;2022-08-25T09:02:45;8.77;;;5.70;;
52564;SDS011;38460;53.106;7.004;2022-08-25T09:05:17;7.97;;;5.93;;
52564;SDS011;38460;53.106;7.004;2022-08-25T09:07:50;10.88;;;6.03;;
52564;SDS011;38460;53.106;7.004;2022-08-25T09:10:19;8.50;;;5.75;;
52564;SDS011;38460;53.106;7.004;2022-08-25T09:13:07;8.60;;;5.38;;
52564;SDS011;38460;53.106;7.004;2022-08-25T09:16:04;8.93;;;5.60;;
52564;SDS011;38460;53.106;7.004;2022-08-25T09:24:45;8.00;;;4.88;;
52564;SDS011;38460;53.106;7.004;2022-08-25T09:30:17;6.50;;;4.60;;
52564;SDS011;38460;53.106;7.004;2022-08-25T09:32:46;8.52;;;4.63;;
52564;SDS011;38460;53.106;7.004;2022-08-25T09:35:25;6.72;;;5.03;;
52564;SDS011;38460;53.106;7.004;2022-08-25T09:37:54;8.88;;;5.25;;
52564;SDS011;38460;53.106;7.004;2022-08-25T09:40:24;8.02;;;4.47;;
52564;SDS011;38460;53.106;7.004;2022-08-25T09:42:52;9.23;;;5.07;;
52564;SDS011;38460;53.106;7.004;2022-08-25T09:48:22;7.13;;;4.53;;
52564;SDS011;38460;53.106;7.004;2022-08-25T09:50:56;5.53;;;4.25;;
52564;SDS011;38460;53.106;7.004;2022-08-25T09:53:25;6.35;;;4.30;;
52564;SDS011;38460;53.106;7.004;2022-08-25T09:55:54;7.88;;;4.18;;
52564;SDS011;38460;53.106;7.004;2022-08-25T09:58:24;6.57;;;4.18;;
52564;SDS011;38460;53.106;7.004;2022-08-25T10:01:04;6.18;;;3.97;;
52564;SDS011;38460;53.106;7.004;2022-08-25T10:03:57;7.88;;;3.92;;
52564;SDS011;38460;53.106;7.004;2022-08-25T10:06:25;6.88;;;4.35;;
52564;SDS011;38460;53.106;7.004;2022-08-25T10:08:55;6.65;;;3.95;;
52564;SDS011;38460;53.106;7.004;2022-08-25T10:17:10;6.13;;;3.83;;
52564;SDS011;38460;53.106;7.004;2022-08-25T10:19:36;5.88;;;3.88;;
52564;SDS011;38460;53.106;7.004;2022-08-25T10:24:29;6.50;;;4.07;;
52564;SDS011;38460;53.106;7.004;2022-08-25T10:32:34;6.45;;;3.80;;
52564;SDS011;38460;53.106;7.004;2022-08-25T10:35:12;7.65;;;4.20;;
52564;SDS011;38460;53.106;7.004;2022-08-25T10:37:58;7.28;;;3.22;;
52564;SDS011;38460;53.106;7.004;2022-08-25T10:43:39;4.30;;;3.13;;
52564;SDS011;38460;53.106;7.004;2022-08-25T10:51:36;5.10;;;3.47;;
52564;SDS011;38460;53.106;7.004;2022-08-25T10:57:23;5.05;;;3.40;;
52564;SDS011;38460;53.106;7.004;2022-08-25T11:07:44;4.60;;;3.30;;
52564;SDS011;38460;53.106;7.004;2022-08-25T11:10:18;4.55;;;3.78;;
52564;SDS011;38460;53.106;7.004;2022-08-25T11:12:51;5.93;;;3.50;;
52564;SDS011;38460;53.106;7.004;2022-08-25T11:20:42;4.70;;;3.53;;
52564;SDS011;38460;53.106;7.004;2022-08-25T11:23:26;5.65;;;3.80;;
52564;SDS011;38460;53.106;7.004;2022-08-25T11:25:59;5.07;;;3.10;;
52564;SDS011;38460;53.106;7.004;2022-08-25T11:28:34;7.05;;;3.75;;
52564;SDS011;38460;53.106;7.004;2022-08-25T11:31:19;5.55;;;3.63;;
52564;SDS011;38460;53.106;7.004;2022-08-25T11:33:47;6.88;;;3.50;;
52564;SDS011;38460;53.106;7.004;2022-08-25T11:36:23;4.97;;;3.30;;
52564;SDS011;38460;53.106;7.004;2022-08-25T11:44:19;8.32;;;3.58;;
52564;SDS011;38460;53.106;7.004;2022-08-25T11:46:56;5.57;;;3.70;;
52564;SDS011;38460;53.106;7.004;2022-08-25T11:49:57;7.00;;;3.33;;
52564;SDS011;38460;53.106;7.004;2022-08-25T11:55:05;8.07;;;3.60;;
52564;SDS011;38460;53.106;7.004;2022-08-25T11:57:31;5.30;;;3.45;;
52564;SDS011;38460;53.106;7.004;2022-08-25T12:00:01;5.53;;;3.35;;
52564;SDS011;38460;53.106;7.004;2022-08-25T12:02:54;5.38;;;3.55;;
52564;SDS011;38460;53.106;7.004;2022-08-25T12:11:17;6.57;;;3.35;;
52564;SDS011;38460;53.106;7.004;2022-08-25T12:13:41;7.90;;;3.63;;
52564;SDS011;38460;53.106;7.004;2022-08-25T12:35:54;5.15;;;3.30;;
52564;SDS011;38460;53.106;7.004;2022-08-25T12:40:59;5.10;;;3.55;;
52564;SDS011;38460;53.106;7.004;2022-08-25T12:43:30;7.88;;;3.90;;
52564;SDS011;38460;53.106;7.004;2022-08-25T12:51:59;6.15;;;3.50;;
52564;SDS011;38460;53.106;7.004;2022-08-25T12:57:02;3.65;;;3.10;;
52564;SDS011;38460;53.106;7.004;2022-08-25T12:59:48;6.40;;;3.22;;
52564;SDS011;38460;53.106;7.004;2022-08-25T13:07:46;5.03;;;2.95;;
52564;SDS011;38460;53.106;7.004;2022-08-25T13:10:36;3.72;;;2.72;;
52564;SDS011;38460;53.106;7.004;2022-08-25T13:13:05;7.50;;;3.38;;
52564;SDS011;38460;53.106;7.004;2022-08-25T13:20:47;7.30;;;3.80;;
52564;SDS011;38460;53.106;7.004;2022-08-25T13:23:30;6.60;;;3.30;;
52564;SDS011;38460;53.106;7.004;2022-08-25T13:26:00;5.35;;;3.08;;
52564;SDS011;38460;53.106;7.004;2022-08-25T13:28:31;4.57;;;2.80;;
52564;SDS011;38460;53.106;7.004;2022-08-25T13:31:01;4.75;;;3.15;;
52564;SDS011;38460;53.106;7.004;2022-08-25T13:33:38;5.15;;;3.25;;
52564;SDS011;38460;53.106;7.004;2022-08-25T13:36:03;5.97;;;3.60;;
52564;SDS011;38460;53.106;7.004;2022-08-25T13:38:48;4.28;;;3.10;;
52564;SDS011;38460;53.106;7.004;2022-08-25T13:41:22;5.32;;;3.22;;
52564;SDS011;38460;53.106;7.004;2022-08-25T13:43:50;8.27;;;3.00;;
52564;SDS011;38460;53.106;7.004;2022-08-25T13:46:21;6.32;;;3.40;;
52564;SDS011;38460;53.106;7.004;2022-08-25T13:48:47;5.13;;;2.90;;
52564;SDS011;38460;53.106;7.004;2022-08-25T13:51:32;6.65;;;3.42;;
52564;SDS011;38460;53.106;7.004;2022-08-25T13:54:00;4.50;;;3.47;;
52564;SDS011;38460;53.106;7.004;2022-08-25T13:56:32;5.03;;;3.10;;
52564;SDS011;38460;53.106;7.004;2022-08-25T13:59:00;4.60;;;3.10;;
52564;SDS011;38460;53.106;7.004;2022-08-25T14:01:32;4.53;;;3.10;;
52564;SDS011;38460;53.106;7.004;2022-08-25T14:04:24;5.03;;;3.17;;
52564;SDS011;38460;53.106;7.004;2022-08-25T14:09:49;3.97;;;3.00;;
52564;SDS011;38460;53.106;7.004;2022-08-25T14:12:30;3.92;;;2.67;;
52564;SDS011;38460;53.106;7.004;2022-08-25T14:20:47;4.50;;;2.95;;
52564;SDS011;38460;53.106;7.004;2022-08-25T14:23:24;5.65;;;3.03;;
52564;SDS011;38460;53.106;7.004;2022-08-25T14:25:55;5.70;;;2.63;;
52564;SDS011;38460;53.106;7.004;2022-08-25T14:28:22;4.50;;;2.85;;
52564;SDS011;38460;53.106;7.004;2022-08-25T14:30:52;2.88;;;2.40;;
52564;SDS011;38460;53.106;7.004;2022-08-25T14:33:32;6.07;;;2.80;;
52564;SDS011;38460;53.106;7.004;2022-08-25T14:36:02;5.82;;;2.70;;
52564;SDS011;38460;53.106;7.004;2022-08-25T14:38:30;5.63;;;2.75;;
52564;SDS011;38460;53.106;7.004;2022-08-25T14:40:56;5.43;;;3.40;;
52564;SDS011;38460;53.106;7.004;2022-08-25T14:43:22;5.43;;;3.10;;
52564;SDS011;38460;53.106;7.004;2022-08-25T14:45:48;5.32;;;3.40;;
52564;SDS011;38460;53.106;7.004;2022-08-25T14:50:52;5.85;;;3.17;;
52564;SDS011;38460;53.106;7.004;2022-08-25T14:53:20;4.75;;;3.20;;
52564;SDS011;38460;53.106;7.004;2022-08-25T14:55:46;5.25;;;3.00;;
52564;SDS011;38460;53.106;7.004;2022-08-25T14:58:11;4.93;;;3.70;;
52564;SDS011;38460;53.106;7.004;2022-08-25T15:00:40;5.47;;;3.33;;
52564;SDS011;38460;53.106;7.004;2022-08-25T15:03:12;5.25;;;3.08;;
52564;SDS011;38460;53.106;7.004;2022-08-25T15:05:41;4.25;;;2.78;;
52564;SDS011;38460;53.106;7.004;2022-08-25T15:08:07;4.90;;;3.13;;
52564;SDS011;38460;53.106;7.004;2022-08-25T15:10:53;4.63;;;2.88;;
52564;SDS011;38460;53.106;7.004;2022-08-25T15:13:19;5.50;;;3.40;;
52564;SDS011;38460;53.106;7.004;2022-08-25T15:15:45;5.43;;;3.05;;
52564;SDS011;38460;53.106;7.004;2022-08-25T15:18:12;4.75;;;3.50;;
52564;SDS011;38460;53.106;7.004;2022-08-25T15:20:38;6.15;;;3.10;;
52564;SDS011;38460;53.106;7.004;2022-08-25T15:23:04;5.90;;;3.25;;
52564;SDS011;38460;53.106;7.004;2022-08-25T15:25:30;6.07;;;3.30;;
52564;SDS011;38460;53.106;7.004;2022-08-25T15:27:55;7.82;;;3.67;;
52564;SDS011;38460;53.106;7.004;2022-08-25T15:30:21;4.70;;;3.45;;
52564;SDS011;38460;53.106;7.004;2022-08-25T15:32:47;5.03;;;3.60;;
52564;SDS011;38460;53.106;7.004;2022-08-25T15:35:13;6.07;;;3.42;;
52564;SDS011;38460;53.106;7.004;2022-08-25T15:37:38;5.97;;;3.30;;
52564;SDS011;38460;53.106;7.004;2022-08-25T15:40:04;4.78;;;3.35;;
52564;SDS011;38460;53.106;7.004;2022-08-25T15:42:32;6.80;;;3.78;;
52564;SDS011;38460;53.106;7.004;2022-08-25T15:45:00;6.15;;;3.30;;
52564;SDS011;38460;53.106;7.004;2022-08-25T15:47:26;5.68;;;3.72;;
52564;SDS011;38460;53.106;7.004;2022-08-25T15:49:58;5.07;;;3.90;;
52564;SDS011;38460;53.106;7.004;2022-08-25T15:52:33;7.47;;;3.95;;
52564;SDS011;38460;53.106;7.004;2022-08-25T15:54:59;4.25;;;3.45;;
52564;SDS011;38460;53.106;7.004;2022-08-25T15:57:25;6.13;;;3.50;;
52564;SDS011;38460;53.106;7.004;2022-08-25T15:59:51;6.75;;;4.00;;
52564;SDS011;38460;53.106;7.004;2022-08-25T16:02:17;6.22;;;3.85;;
52564;SDS011;38460;53.106;7.004;2022-08-25T16:04:43;5.30;;;3.90;;
52564;SDS011;38460;53.106;7.004;2022-08-25T16:07:09;5.47;;;3.72;;
52564;SDS011;38460;53.106;7.004;2022-08-25T16:09:35;6.97;;;3.70;;
52564;SDS011;38460;53.106;7.004;2022-08-25T16:12:01;5.75;;;3.70;;
52564;SDS011;38460;53.106;7.004;2022-08-25T16:14:26;5.43;;;3.75;;
52564;SDS011;38460;53.106;7.004;2022-08-25T16:16:52;5.75;;;3.92;;
52564;SDS011;38460;53.106;7.004;2022-08-25T16:19:18;5.20;;;3.85;;
52564;SDS011;38460;53.106;7.004;2022-08-25T16:21:44;6.38;;;3.70;;
52564;SDS011;38460;53.106;7.004;2022-08-25T16:24:10;5.80;;;3.97;;
52564;SDS011;38460;53.106;7.004;2022-08-25T16:26:36;6.60;;;4.10;;
52564;SDS011;38460;53.106;7.004;2022-08-25T16:29:06;5.95;;;3.80;;
52564;SDS011;38460;53.106;7.004;2022-08-25T16:31:33;5.72;;;4.28;;
52564;SDS011;38460;53.106;7.004;2022-08-25T16:33:58;6.55;;;3.90;;
52564;SDS011;38460;53.106;7.004;2022-08-25T16:36:25;7.32;;;4.53;;
52564;SDS011;38460;53.106;7.004;2022-08-25T16:38:52;7.20;;;4.47;;
52564;SDS011;38460;53.106;7.004;2022-08-25T16:41:20;10.43;;;4.85;;
52564;SDS011;38460;53.106;7.004;2022-08-25T16:43:47;8.00;;;3.95;;
52564;SDS011;38460;53.106;7.004;2022-08-25T16:46:15;4.88;;;3.83;;
52564;SDS011;38460;53.106;7.004;2022-08-25T16:48:42;6.28;;;3.97;;
52564;SDS011;38460;53.106;7.004;2022-08-25T16:51:13;8.93;;;4.45;;
52564;SDS011;38460;53.106;7.004;2022-08-25T16:53:42;6.15;;;4.65;;
52564;SDS011;38460;53.106;7.004;2022-08-25T16:56:27;7.50;;;4.32;;
52564;SDS011;38460;53.106;7.004;2022-08-25T16:58:54;5.22;;;4.20;;
52564;SDS011;38460;53.106;7.004;2022-08-25T17:01:21;6.93;;;4.18;;
52564;SDS011;38460;53.106;7.004;2022-08-25T17:03:49;6.05;;;4.18;;
52564;SDS011;38460;53.106;7.004;2022-08-25T17:06:17;8.02;;;4.13;;
52564;SDS011;38460;53.106;7.004;2022-08-25T17:08:43;7.63;;;4.50;;